sensor_id;sensor_type;location;lat;lon;timestamp;P1;durP1;ratioP1;P2;durP2;ratioP2
36827;SDS011;22766;48.042;11.192;2023-04-24T00:01:08;0.55;;;0.20;;
36827;SDS011;22766;48.042;11.192;2023-04-24T00:03:36;1.00;;;0.30;;
36827;SDS011;22766;48.042;11.192;2023-04-24T00:06:04;0.32;;;0.28;;
36827;SDS011;22766;48.042;11.192;2023-04-24T00:08:33;2.70;;;0.30;;
36827;SDS011;22766;48.042;11.192;2023-04-24T00:11:01;0.10;;;0.10;;
36827;SDS011;22766;48.042;11.192;2023-04-24T00:13:28;0.73;;;0.30;;
36827;SDS011;22766;48.042;11.192;2023-04-24T00:15:55;0.40;;;0.20;;
36827;SDS011;22766;48.042;11.192;2023-04-24T00:18:22;0.30;;;0.20;;
36827;SDS011;22766;48.042;11.192;2023-04-24T00:20:49;0.20;;;0.15;;
36827;SDS011;22766;48.042;11.192;2023-04-24T00:23:16;1.52;;;0.20;;
36827;SDS011;22766;48.042;11.192;2023-04-24T00:25:42;0.40;;;0.22;;
36827;SDS011;22766;48.042;11.192;2023-04-24T00:28:09;0.20;;;0.20;;
36827;SDS011;22766;48.042;11.192;2023-04-24T00:30:36;0.20;;;0.17;;
36827;SDS011;22766;48.042;11.192;2023-04-24T00:33:03;0.15;;;0.15;;
36827;SDS011;22766;48.042;11.192;2023-04-24T00:35:30;0.20;;;0.20;;
36827;SDS011;22766;48.042;11.192;2023-04-24T00:37:57;0.20;;;0.20;;
36827;SDS011;22766;48.042;11.192;2023-04-24T00:40:24;0.20;;;0.20;;
36827;SDS011;22766;48.042;11.192;2023-04-24T00:42:51;0.10;;;0.10;;
36827;SDS011;22766;48.042;11.192;2023-04-24T00:45:17;0.10;;;0.10;;
36827;SDS011;22766;48.042;11.192;2023-04-24T00:47:44;0.10;;;0.10;;
36827;SDS011;22766;48.042;11.192;2023-04-24T00:50:12;0.20;;;0.20;;
36827;SDS011;22766;48.042;11.192;2023-04-24T00:52:41;0.10;;;0.10;;
36827;SDS011;22766;48.042;11.192;2023-04-24T00:55:08;0.20;;;0.20;;
36827;SDS011;22766;48.042;11.192;2023-04-24T00:57:35;0.10;;;0.10;;
36827;SDS011;22766;48.042;11.192;2023-04-24T01:00:04;0.75;;;0.20;;
36827;SDS011;22766;48.042;11.192;2023-04-24T01:02:32;0.98;;;0.22;;
36827;SDS011;22766;48.042;11.192;2023-04-24T01:05:01;0.43;;;0.20;;
36827;SDS011;22766;48.042;11.192;2023-04-24T01:07:27;0.30;;;0.30;;
36827;SDS011;22766;48.042;11.192;2023-04-24T01:09:55;0.20;;;0.20;;
36827;SDS011;22766;48.042;11.192;2023-04-24T01:12:24;0.10;;;0.10;;
36827;SDS011;22766;48.042;11.192;2023-04-24T01:14:50;0.47;;;0.20;;
36827;SDS011;22766;48.042;11.192;2023-04-24T01:17:17;0.20;;;0.20;;
36827;SDS011;22766;48.042;11.192;2023-04-24T01:19:44;0.20;;;0.20;;
36827;SDS011;22766;48.042;11.192;2023-04-24T01:22:12;0.10;;;0.10;;
36827;SDS011;22766;48.042;11.192;2023-04-24T01:24:41;3.20;;;0.20;;
36827;SDS011;22766;48.042;11.192;2023-04-24T01:27:11;0.17;;;0.17;;
36827;SDS011;22766;48.042;11.192;2023-04-24T01:29:44;0.17;;;0.15;;
36827;SDS011;22766;48.042;11.192;2023-04-24T01:32:11;0.30;;;0.30;;
36827;SDS011;22766;48.042;11.192;2023-04-24T01:34:39;0.22;;;0.20;;
36827;SDS011;22766;48.042;11.192;2023-04-24T01:37:06;0.70;;;0.20;;
36827;SDS011;22766;48.042;11.192;2023-04-24T01:39:33;0.63;;;0.25;;
36827;SDS011;22766;48.042;11.192;2023-04-24T01:42:00;0.30;;;0.20;;
36827;SDS011;22766;48.042;11.192;2023-04-24T01:44:28;0.20;;;0.20;;
36827;SDS011;22766;48.042;11.192;2023-04-24T01:46:55;0.15;;;0.15;;
36827;SDS011;22766;48.042;11.192;2023-04-24T01:49:22;0.10;;;0.10;;
36827;SDS011;22766;48.042;11.192;2023-04-24T01:51:49;0.22;;;0.20;;
36827;SDS011;22766;48.042;11.192;2023-04-24T01:54:16;0.10;;;0.10;;
36827;SDS011;22766;48.042;11.192;2023-04-24T01:56:43;0.55;;;0.28;;
36827;SDS011;22766;48.042;11.192;2023-04-24T01:59:10;0.10;;;0.10;;
36827;SDS011;22766;48.042;11.192;2023-04-24T02:01:38;0.20;;;0.20;;
36827;SDS011;22766;48.042;11.192;2023-04-24T02:04:06;0.32;;;0.20;;
36827;SDS011;22766;48.042;11.192;2023-04-24T02:06:34;0.25;;;0.20;;
36827;SDS011;22766;48.042;11.192;2023-04-24T02:09:01;0.20;;;0.20;;
36827;SDS011;22766;48.042;11.192;2023-04-24T02:11:29;0.28;;;0.28;;
36827;SDS011;22766;48.042;11.192;2023-04-24T02:13:56;0.65;;;0.20;;
36827;SDS011;22766;48.042;11.192;2023-04-24T02:16:24;0.35;;;0.30;;
36827;SDS011;22766;48.042;11.192;2023-04-24T02:18:51;0.17;;;0.17;;
36827;SDS011;22766;48.042;11.192;2023-04-24T02:21:17;0.10;;;0.10;;
36827;SDS011;22766;48.042;11.192;2023-04-24T02:23:44;0.93;;;0.13;;
36827;SDS011;22766;48.042;11.192;2023-04-24T02:26:12;0.10;;;0.10;;
36827;SDS011;22766;48.042;11.192;2023-04-24T02:28:38;0.60;;;0.40;;
36827;SDS011;22766;48.042;11.192;2023-04-24T02:31:05;0.17;;;0.10;;
36827;SDS011;22766;48.042;11.192;2023-04-24T02:33:32;0.43;;;0.20;;
36827;SDS011;22766;48.042;11.192;2023-04-24T02:35:59;0.10;;;0.10;;
36827;SDS011;22766;48.042;11.192;2023-04-24T02:38:26;0.13;;;0.13;;
36827;SDS011;22766;48.042;11.192;2023-04-24T02:40:53;0.38;;;0.20;;
36827;SDS011;22766;48.042;11.192;2023-04-24T02:43:20;0.20;;;0.20;;
36827;SDS011;22766;48.042;11.192;2023-04-24T02:45:47;0.10;;;0.10;;
36827;SDS011;22766;48.042;11.192;2023-04-24T02:48:13;0.47;;;0.20;;
36827;SDS011;22766;48.042;11.192;2023-04-24T02:50:40;0.10;;;0.10;;
36827;SDS011;22766;48.042;11.192;2023-04-24T02:53:07;0.25;;;0.20;;
36827;SDS011;22766;48.042;11.192;2023-04-24T02:55:33;0.15;;;0.15;;
36827;SDS011;22766;48.042;11.192;2023-04-24T02:58:00;2.00;;;0.30;;
36827;SDS011;22766;48.042;11.192;2023-04-24T03:00:27;0.50;;;0.20;;
36827;SDS011;22766;48.042;11.192;2023-04-24T03:02:54;0.32;;;0.22;;
36827;SDS011;22766;48.042;11.192;2023-04-24T03:05:21;1.05;;;0.20;;
36827;SDS011;22766;48.042;11.192;2023-04-24T03:07:47;1.05;;;0.22;;
36827;SDS011;22766;48.042;11.192;2023-04-24T03:10:14;0.20;;;0.17;;
36827;SDS011;22766;48.042;11.192;2023-04-24T03:12:41;0.20;;;0.20;;
36827;SDS011;22766;48.042;11.192;2023-04-24T03:15:08;0.65;;;0.30;;
36827;SDS011;22766;48.042;11.192;2023-04-24T03:17:36;0.40;;;0.30;;
36827;SDS011;22766;48.042;11.192;2023-04-24T03:20:03;0.20;;;0.20;;
36827;SDS011;22766;48.042;11.192;2023-04-24T03:22:31;0.55;;;0.22;;
36827;SDS011;22766;48.042;11.192;2023-04-24T03:25:00;0.22;;;0.20;;
36827;SDS011;22766;48.042;11.192;2023-04-24T03:27:27;0.30;;;0.20;;
36827;SDS011;22766;48.042;11.192;2023-04-24T03:30:02;0.77;;;0.20;;
36827;SDS011;22766;48.042;11.192;2023-04-24T03:32:51;0.32;;;0.20;;
36827;SDS011;22766;48.042;11.192;2023-04-24T03:37:50;0.10;;;0.10;;
36827;SDS011;22766;48.042;11.192;2023-04-24T03:40:46;0.20;;;0.20;;
36827;SDS011;22766;48.042;11.192;2023-04-24T03:43:26;0.63;;;0.15;;
36827;SDS011;22766;48.042;11.192;2023-04-24T03:45:56;0.20;;;0.20;;
36827;SDS011;22766;48.042;11.192;2023-04-24T03:48:23;0.35;;;0.20;;
36827;SDS011;22766;48.042;11.192;2023-04-24T03:50:50;0.50;;;0.28;;
36827;SDS011;22766;48.042;11.192;2023-04-24T03:53:17;0.20;;;0.20;;
36827;SDS011;22766;48.042;11.192;2023-04-24T03:55:43;0.30;;;0.10;;
36827;SDS011;22766;48.042;11.192;2023-04-24T03:58:10;1.10;;;0.20;;
36827;SDS011;22766;48.042;11.192;2023-04-24T04:00:37;0.25;;;0.22;;
36827;SDS011;22766;48.042;11.192;2023-04-24T04:03:38;0.30;;;0.10;;
36827;SDS011;22766;48.042;11.192;2023-04-24T04:06:06;2.08;;;0.20;;
36827;SDS011;22766;48.042;11.192;2023-04-24T04:08:33;2.03;;;0.20;;
36827;SDS011;22766;48.042;11.192;2023-04-24T04:11:00;0.20;;;0.20;;
36827;SDS011;22766;48.042;11.192;2023-04-24T04:13:30;0.63;;;0.28;;
36827;SDS011;22766;48.042;11.192;2023-04-24T04:15:57;1.25;;;0.20;;
36827;SDS011;22766;48.042;11.192;2023-04-24T04:18:24;0.28;;;0.28;;
36827;SDS011;22766;48.042;11.192;2023-04-24T04:20:51;0.43;;;0.20;;
36827;SDS011;22766;48.042;11.192;2023-04-24T04:23:18;0.10;;;0.10;;
36827;SDS011;22766;48.042;11.192;2023-04-24T04:26:05;0.20;;;0.20;;
36827;SDS011;22766;48.042;11.192;2023-04-24T04:28:47;0.40;;;0.22;;
36827;SDS011;22766;48.042;11.192;2023-04-24T04:31:15;0.40;;;0.38;;
36827;SDS011;22766;48.042;11.192;2023-04-24T04:33:42;0.50;;;0.20;;
36827;SDS011;22766;48.042;11.192;2023-04-24T04:36:09;2.75;;;1.10;;
36827;SDS011;22766;48.042;11.192;2023-04-24T04:38:41;1.25;;;0.57;;
36827;SDS011;22766;48.042;11.192;2023-04-24T04:41:45;1.85;;;0.70;;
36827;SDS011;22766;48.042;11.192;2023-04-24T04:44:17;3.92;;;0.95;;
36827;SDS011;22766;48.042;11.192;2023-04-24T04:46:44;1.80;;;0.70;;
36827;SDS011;22766;48.042;11.192;2023-04-24T04:49:20;3.30;;;1.10;;
36827;SDS011;22766;48.042;11.192;2023-04-24T04:51:47;2.28;;;0.90;;
36827;SDS011;22766;48.042;11.192;2023-04-24T04:54:14;0.40;;;0.20;;
36827;SDS011;22766;48.042;11.192;2023-04-24T04:56:42;0.28;;;0.20;;
36827;SDS011;22766;48.042;11.192;2023-04-24T04:59:09;0.10;;;0.10;;
36827;SDS011;22766;48.042;11.192;2023-04-24T05:01:37;0.20;;;0.20;;
36827;SDS011;22766;48.042;11.192;2023-04-24T05:04:06;0.65;;;0.35;;
36827;SDS011;22766;48.042;11.192;2023-04-24T05:06:33;0.50;;;0.20;;
36827;SDS011;22766;48.042;11.192;2023-04-24T05:08:59;0.73;;;0.22;;
36827;SDS011;22766;48.042;11.192;2023-04-24T05:11:33;0.50;;;0.20;;
36827;SDS011;22766;48.042;11.192;2023-04-24T05:14:01;0.77;;;0.45;;
36827;SDS011;22766;48.042;11.192;2023-04-24T05:16:34;0.75;;;0.20;;
36827;SDS011;22766;48.042;11.192;2023-04-24T05:19:01;0.47;;;0.15;;
36827;SDS011;22766;48.042;11.192;2023-04-24T05:21:32;0.70;;;0.30;;
36827;SDS011;22766;48.042;11.192;2023-04-24T05:23:59;2.03;;;0.45;;
36827;SDS011;22766;48.042;11.192;2023-04-24T05:26:45;1.90;;;0.50;;
36827;SDS011;22766;48.042;11.192;2023-04-24T05:29:14;1.40;;;0.32;;
36827;SDS011;22766;48.042;11.192;2023-04-24T05:31:41;2.40;;;0.50;;
36827;SDS011;22766;48.042;11.192;2023-04-24T05:34:11;7.45;;;2.20;;
36827;SDS011;22766;48.042;11.192;2023-04-24T05:36:41;4.93;;;1.50;;
36827;SDS011;22766;48.042;11.192;2023-04-24T05:39:08;0.77;;;0.60;;
36827;SDS011;22766;48.042;11.192;2023-04-24T05:41:36;1.10;;;0.38;;
36827;SDS011;22766;48.042;11.192;2023-04-24T05:44:02;0.30;;;0.30;;
36827;SDS011;22766;48.042;11.192;2023-04-24T05:46:29;0.43;;;0.20;;
36827;SDS011;22766;48.042;11.192;2023-04-24T05:48:56;0.55;;;0.28;;
36827;SDS011;22766;48.042;11.192;2023-04-24T05:51:23;0.10;;;0.10;;
36827;SDS011;22766;48.042;11.192;2023-04-24T05:53:50;0.40;;;0.20;;
36827;SDS011;22766;48.042;11.192;2023-04-24T05:56:17;0.50;;;0.30;;
36827;SDS011;22766;48.042;11.192;2023-04-24T05:58:44;1.23;;;0.28;;
36827;SDS011;22766;48.042;11.192;2023-04-24T06:01:13;0.28;;;0.10;;
36827;SDS011;22766;48.042;11.192;2023-04-24T06:03:46;0.22;;;0.20;;
36827;SDS011;22766;48.042;11.192;2023-04-24T06:06:13;0.20;;;0.10;;
36827;SDS011;22766;48.042;11.192;2023-04-24T06:08:40;0.80;;;0.22;;
36827;SDS011;22766;48.042;11.192;2023-04-24T06:11:09;0.45;;;0.10;;
36827;SDS011;22766;48.042;11.192;2023-04-24T06:13:37;0.17;;;0.17;;
36827;SDS011;22766;48.042;11.192;2023-04-24T06:16:42;0.20;;;0.15;;
36827;SDS011;22766;48.042;11.192;2023-04-24T06:21:50;0.20;;;0.20;;
36827;SDS011;22766;48.042;11.192;2023-04-24T06:24:17;1.00;;;0.57;;
36827;SDS011;22766;48.042;11.192;2023-04-24T06:26:44;0.20;;;0.20;;
36827;SDS011;22766;48.042;11.192;2023-04-24T06:29:13;0.30;;;0.20;;
36827;SDS011;22766;48.042;11.192;2023-04-24T06:31:40;0.90;;;0.30;;
36827;SDS011;22766;48.042;11.192;2023-04-24T06:34:07;0.52;;;0.20;;
36827;SDS011;22766;48.042;11.192;2023-04-24T06:36:33;2.58;;;0.17;;
36827;SDS011;22766;48.042;11.192;2023-04-24T06:39:01;4.22;;;0.55;;
36827;SDS011;22766;48.042;11.192;2023-04-24T06:41:28;0.57;;;0.20;;
36827;SDS011;22766;48.042;11.192;2023-04-24T06:43:55;0.73;;;0.30;;
36827;SDS011;22766;48.042;11.192;2023-04-24T06:46:22;0.70;;;0.38;;
36827;SDS011;22766;48.042;11.192;2023-04-24T06:48:52;2.67;;;1.05;;
36827;SDS011;22766;48.042;11.192;2023-04-24T06:51:22;0.20;;;0.20;;
36827;SDS011;22766;48.042;11.192;2023-04-24T06:53:51;0.50;;;0.10;;
36827;SDS011;22766;48.042;11.192;2023-04-24T06:56:18;2.92;;;0.30;;
36827;SDS011;22766;48.042;11.192;2023-04-24T06:58:44;2.00;;;0.68;;
36827;SDS011;22766;48.042;11.192;2023-04-24T07:01:11;0.40;;;0.35;;
36827;SDS011;22766;48.042;11.192;2023-04-24T07:03:38;0.80;;;0.20;;
36827;SDS011;22766;48.042;11.192;2023-04-24T07:06:05;0.35;;;0.10;;
36827;SDS011;22766;48.042;11.192;2023-04-24T07:08:32;0.40;;;0.20;;
36827;SDS011;22766;48.042;11.192;2023-04-24T07:10:59;0.98;;;0.20;;
36827;SDS011;22766;48.042;11.192;2023-04-24T07:13:26;0.20;;;0.15;;
36827;SDS011;22766;48.042;11.192;2023-04-24T07:15:54;0.40;;;0.10;;
36827;SDS011;22766;48.042;11.192;2023-04-24T07:18:21;0.15;;;0.10;;
36827;SDS011;22766;48.042;11.192;2023-04-24T07:20:48;0.70;;;0.20;;
36827;SDS011;22766;48.042;11.192;2023-04-24T07:23:18;4.07;;;0.28;;
36827;SDS011;22766;48.042;11.192;2023-04-24T07:25:46;0.60;;;0.20;;
36827;SDS011;22766;48.042;11.192;2023-04-24T07:28:13;0.10;;;0.10;;
36827;SDS011;22766;48.042;11.192;2023-04-24T07:30:39;0.40;;;0.17;;
36827;SDS011;22766;48.042;11.192;2023-04-24T07:33:06;0.65;;;0.10;;
36827;SDS011;22766;48.042;11.192;2023-04-24T07:35:33;0.10;;;0.10;;
36827;SDS011;22766;48.042;11.192;2023-04-24T07:38:01;1.92;;;0.20;;
36827;SDS011;22766;48.042;11.192;2023-04-24T07:40:28;2.72;;;0.35;;
36827;SDS011;22766;48.042;11.192;2023-04-24T07:42:54;0.35;;;0.20;;
36827;SDS011;22766;48.042;11.192;2023-04-24T07:45:21;0.40;;;0.10;;
36827;SDS011;22766;48.042;11.192;2023-04-24T07:47:50;0.30;;;0.20;;
36827;SDS011;22766;48.042;11.192;2023-04-24T07:50:17;2.35;;;0.10;;
36827;SDS011;22766;48.042;11.192;2023-04-24T07:52:44;0.68;;;0.10;;
36827;SDS011;22766;48.042;11.192;2023-04-24T07:55:10;1.35;;;0.10;;
36827;SDS011;22766;48.042;11.192;2023-04-24T07:57:40;1.17;;;0.30;;
36827;SDS011;22766;48.042;11.192;2023-04-24T08:00:07;2.53;;;0.20;;
36827;SDS011;22766;48.042;11.192;2023-04-24T08:02:38;0.15;;;0.15;;
36827;SDS011;22766;48.042;11.192;2023-04-24T08:05:06;2.13;;;0.43;;
36827;SDS011;22766;48.042;11.192;2023-04-24T08:07:33;0.10;;;0.08;;
36827;SDS011;22766;48.042;11.192;2023-04-24T08:10:01;0.20;;;0.20;;
36827;SDS011;22766;48.042;11.192;2023-04-24T08:12:29;0.40;;;0.28;;
36827;SDS011;22766;48.042;11.192;2023-04-24T08:14:55;0.45;;;0.28;;
36827;SDS011;22766;48.042;11.192;2023-04-24T08:17:23;0.77;;;0.30;;
36827;SDS011;22766;48.042;11.192;2023-04-24T08:19:50;1.50;;;0.30;;
36827;SDS011;22766;48.042;11.192;2023-04-24T08:22:18;0.30;;;0.30;;
36827;SDS011;22766;48.042;11.192;2023-04-24T08:24:45;1.98;;;0.35;;
36827;SDS011;22766;48.042;11.192;2023-04-24T08:27:12;0.60;;;0.32;;
36827;SDS011;22766;48.042;11.192;2023-04-24T08:29:38;0.40;;;0.38;;
36827;SDS011;22766;48.042;11.192;2023-04-24T08:32:05;0.70;;;0.40;;
36827;SDS011;22766;48.042;11.192;2023-04-24T08:34:33;2.70;;;0.40;;
36827;SDS011;22766;48.042;11.192;2023-04-24T08:36:59;0.70;;;0.40;;
36827;SDS011;22766;48.042;11.192;2023-04-24T08:39:26;0.98;;;0.30;;
36827;SDS011;22766;48.042;11.192;2023-04-24T08:41:55;4.13;;;0.55;;
36827;SDS011;22766;48.042;11.192;2023-04-24T08:44:22;1.00;;;0.55;;
36827;SDS011;22766;48.042;11.192;2023-04-24T08:46:49;1.90;;;0.57;;
36827;SDS011;22766;48.042;11.192;2023-04-24T08:49:17;0.95;;;0.40;;
36827;SDS011;22766;48.042;11.192;2023-04-24T08:51:45;0.55;;;0.40;;
36827;SDS011;22766;48.042;11.192;2023-04-24T08:54:13;3.88;;;0.85;;
36827;SDS011;22766;48.042;11.192;2023-04-24T08:56:40;0.75;;;0.50;;
36827;SDS011;22766;48.042;11.192;2023-04-24T08:59:11;0.40;;;0.40;;
36827;SDS011;22766;48.042;11.192;2023-04-24T09:01:38;2.13;;;1.17;;
36827;SDS011;22766;48.042;11.192;2023-04-24T09:04:07;0.75;;;0.38;;
36827;SDS011;22766;48.042;11.192;2023-04-24T09:06:39;7.22;;;0.65;;
36827;SDS011;22766;48.042;11.192;2023-04-24T09:09:07;1.42;;;0.47;;
36827;SDS011;22766;48.042;11.192;2023-04-24T09:11:37;1.52;;;0.40;;
36827;SDS011;22766;48.042;11.192;2023-04-24T09:14:04;1.40;;;0.40;;
36827;SDS011;22766;48.042;11.192;2023-04-24T09:16:33;0.35;;;0.30;;
36827;SDS011;22766;48.042;11.192;2023-04-24T09:19:02;1.10;;;0.40;;
36827;SDS011;22766;48.042;11.192;2023-04-24T09:21:32;0.90;;;0.40;;
36827;SDS011;22766;48.042;11.192;2023-04-24T09:24:04;2.17;;;0.47;;
36827;SDS011;22766;48.042;11.192;2023-04-24T09:26:36;0.50;;;0.25;;
36827;SDS011;22766;48.042;11.192;2023-04-24T09:29:03;0.30;;;0.20;;
36827;SDS011;22766;48.042;11.192;2023-04-24T09:31:31;0.90;;;0.50;;
36827;SDS011;22766;48.042;11.192;2023-04-24T09:33:59;1.48;;;0.73;;
36827;SDS011;22766;48.042;11.192;2023-04-24T09:36:30;0.70;;;0.47;;
36827;SDS011;22766;48.042;11.192;2023-04-24T09:39:04;0.45;;;0.40;;
36827;SDS011;22766;48.042;11.192;2023-04-24T09:41:32;0.50;;;0.38;;
36827;SDS011;22766;48.042;11.192;2023-04-24T09:46:56;2.22;;;0.47;;
36827;SDS011;22766;48.042;11.192;2023-04-24T09:49:28;1.77;;;0.40;;
36827;SDS011;22766;48.042;11.192;2023-04-24T09:52:06;4.72;;;0.50;;
36827;SDS011;22766;48.042;11.192;2023-04-24T09:54:37;0.73;;;0.50;;
36827;SDS011;22766;48.042;11.192;2023-04-24T09:57:06;1.10;;;0.40;;
36827;SDS011;22766;48.042;11.192;2023-04-24T09:59:34;1.35;;;0.40;;
36827;SDS011;22766;48.042;11.192;2023-04-24T10:02:03;0.60;;;0.47;;
36827;SDS011;22766;48.042;11.192;2023-04-24T10:04:53;1.45;;;0.70;;
36827;SDS011;22766;48.042;11.192;2023-04-24T10:07:22;1.40;;;0.40;;
36827;SDS011;22766;48.042;11.192;2023-04-24T10:09:52;1.17;;;0.60;;
36827;SDS011;22766;48.042;11.192;2023-04-24T10:12:20;0.50;;;0.32;;
36827;SDS011;22766;48.042;11.192;2023-04-24T10:14:48;0.68;;;0.30;;
36827;SDS011;22766;48.042;11.192;2023-04-24T10:17:16;0.82;;;0.40;;
36827;SDS011;22766;48.042;11.192;2023-04-24T10:19:43;0.70;;;0.40;;
36827;SDS011;22766;48.042;11.192;2023-04-24T10:22:12;0.57;;;0.40;;
36827;SDS011;22766;48.042;11.192;2023-04-24T10:24:42;0.52;;;0.30;;
36827;SDS011;22766;48.042;11.192;2023-04-24T10:27:10;0.15;;;0.10;;
36827;SDS011;22766;48.042;11.192;2023-04-24T10:29:39;0.22;;;0.10;;
36827;SDS011;22766;48.042;11.192;2023-04-24T10:32:07;0.45;;;0.20;;
36827;SDS011;22766;48.042;11.192;2023-04-24T10:34:36;3.47;;;0.28;;
36827;SDS011;22766;48.042;11.192;2023-04-24T10:37:03;0.17;;;0.17;;
36827;SDS011;22766;48.042;11.192;2023-04-24T10:39:36;1.33;;;0.30;;
36827;SDS011;22766;48.042;11.192;2023-04-24T10:42:13;0.50;;;0.25;;
36827;SDS011;22766;48.042;11.192;2023-04-24T10:44:42;1.48;;;0.40;;
36827;SDS011;22766;48.042;11.192;2023-04-24T10:47:15;2.10;;;0.30;;
36827;SDS011;22766;48.042;11.192;2023-04-24T10:49:41;0.35;;;0.20;;
36827;SDS011;22766;48.042;11.192;2023-04-24T10:52:09;0.10;;;0.10;;
36827;SDS011;22766;48.042;11.192;2023-04-24T10:59:49;0.30;;;0.20;;
36827;SDS011;22766;48.042;11.192;2023-04-24T11:02:17;0.38;;;0.20;;
36827;SDS011;22766;48.042;11.192;2023-04-24T11:04:45;0.35;;;0.20;;
36827;SDS011;22766;48.042;11.192;2023-04-24T11:07:12;1.23;;;0.32;;
36827;SDS011;22766;48.042;11.192;2023-04-24T11:09:39;0.57;;;0.20;;
36827;SDS011;22766;48.042;11.192;2023-04-24T11:12:10;0.28;;;0.20;;
36827;SDS011;22766;48.042;11.192;2023-04-24T11:17:35;1.05;;;0.30;;
36827;SDS011;22766;48.042;11.192;2023-04-24T11:20:05;0.50;;;0.38;;
36827;SDS011;22766;48.042;11.192;2023-04-24T11:22:54;0.22;;;0.13;;
36827;SDS011;22766;48.042;11.192;2023-04-24T11:25:22;0.40;;;0.30;;
36827;SDS011;22766;48.042;11.192;2023-04-24T11:27:49;1.35;;;0.25;;
36827;SDS011;22766;48.042;11.192;2023-04-24T11:30:19;0.65;;;0.35;;
36827;SDS011;22766;48.042;11.192;2023-04-24T11:32:47;0.98;;;0.40;;
36827;SDS011;22766;48.042;11.192;2023-04-24T11:37:45;1.90;;;0.50;;
36827;SDS011;22766;48.042;11.192;2023-04-24T11:40:33;3.92;;;0.70;;
36827;SDS011;22766;48.042;11.192;2023-04-24T11:43:00;1.75;;;0.45;;
36827;SDS011;22766;48.042;11.192;2023-04-24T11:45:28;0.73;;;0.40;;
36827;SDS011;22766;48.042;11.192;2023-04-24T11:47:56;1.92;;;0.50;;
36827;SDS011;22766;48.042;11.192;2023-04-24T11:50:25;1.38;;;0.60;;
36827;SDS011;22766;48.042;11.192;2023-04-24T11:52:54;0.65;;;0.40;;
36827;SDS011;22766;48.042;11.192;2023-04-24T11:57:49;0.30;;;0.30;;
36827;SDS011;22766;48.042;11.192;2023-04-24T12:00:20;0.55;;;0.40;;
36827;SDS011;22766;48.042;11.192;2023-04-24T12:02:48;0.47;;;0.20;;
36827;SDS011;22766;48.042;11.192;2023-04-24T12:07:48;0.73;;;0.40;;
36827;SDS011;22766;48.042;11.192;2023-04-24T12:10:19;0.63;;;0.43;;
36827;SDS011;22766;48.042;11.192;2023-04-24T12:12:49;0.85;;;0.40;;
36827;SDS011;22766;48.042;11.192;2023-04-24T12:15:18;1.08;;;0.70;;
36827;SDS011;22766;48.042;11.192;2023-04-24T12:17:46;1.63;;;0.68;;
36827;SDS011;22766;48.042;11.192;2023-04-24T12:20:14;0.95;;;0.50;;
36827;SDS011;22766;48.042;11.192;2023-04-24T12:25:17;0.98;;;0.50;;
36827;SDS011;22766;48.042;11.192;2023-04-24T12:27:45;1.13;;;0.63;;
36827;SDS011;22766;48.042;11.192;2023-04-24T12:30:14;1.27;;;0.75;;
36827;SDS011;22766;48.042;11.192;2023-04-24T12:32:43;3.28;;;0.60;;
36827;SDS011;22766;48.042;11.192;2023-04-24T12:35:18;2.30;;;0.57;;
36827;SDS011;22766;48.042;11.192;2023-04-24T12:37:46;0.45;;;0.45;;
36827;SDS011;22766;48.042;11.192;2023-04-24T12:40:13;0.73;;;0.35;;
36827;SDS011;22766;48.042;11.192;2023-04-24T12:42:42;1.10;;;0.63;;
36827;SDS011;22766;48.042;11.192;2023-04-24T12:45:11;1.88;;;0.75;;
36827;SDS011;22766;48.042;11.192;2023-04-24T12:47:38;3.30;;;0.60;;
36827;SDS011;22766;48.042;11.192;2023-04-24T12:50:10;0.85;;;0.50;;
36827;SDS011;22766;48.042;11.192;2023-04-24T12:52:38;1.10;;;0.95;;
36827;SDS011;22766;48.042;11.192;2023-04-24T12:55:05;8.02;;;1.08;;
36827;SDS011;22766;48.042;11.192;2023-04-24T12:57:34;5.10;;;0.98;;
36827;SDS011;22766;48.042;11.192;2023-04-24T13:00:02;3.08;;;0.65;;
36827;SDS011;22766;48.042;11.192;2023-04-24T13:02:30;1.35;;;0.50;;
36827;SDS011;22766;48.042;11.192;2023-04-24T13:04:58;2.30;;;0.60;;
36827;SDS011;22766;48.042;11.192;2023-04-24T13:07:25;1.38;;;0.50;;
36827;SDS011;22766;48.042;11.192;2023-04-24T13:09:52;1.02;;;0.63;;
36827;SDS011;22766;48.042;11.192;2023-04-24T13:12:21;3.05;;;1.00;;
36827;SDS011;22766;48.042;11.192;2023-04-24T13:14:47;3.92;;;0.80;;
36827;SDS011;22766;48.042;11.192;2023-04-24T13:17:14;1.88;;;0.65;;
36827;SDS011;22766;48.042;11.192;2023-04-24T13:19:43;1.42;;;0.65;;
36827;SDS011;22766;48.042;11.192;2023-04-24T13:22:10;4.20;;;0.80;;
36827;SDS011;22766;48.042;11.192;2023-04-24T13:24:38;3.33;;;0.57;;
36827;SDS011;22766;48.042;11.192;2023-04-24T13:27:07;2.28;;;0.60;;
36827;SDS011;22766;48.042;11.192;2023-04-24T13:29:35;1.70;;;0.70;;
36827;SDS011;22766;48.042;11.192;2023-04-24T13:32:02;4.32;;;0.70;;
36827;SDS011;22766;48.042;11.192;2023-04-24T13:34:30;3.30;;;0.90;;
36827;SDS011;22766;48.042;11.192;2023-04-24T13:36:57;1.83;;;0.47;;
36827;SDS011;22766;48.042;11.192;2023-04-24T13:39:25;1.15;;;0.40;;
36827;SDS011;22766;48.042;11.192;2023-04-24T13:41:52;1.40;;;0.60;;
36827;SDS011;22766;48.042;11.192;2023-04-24T13:44:20;0.47;;;0.40;;
36827;SDS011;22766;48.042;11.192;2023-04-24T13:46:48;1.17;;;0.60;;
36827;SDS011;22766;48.042;11.192;2023-04-24T13:49:16;1.15;;;0.43;;
36827;SDS011;22766;48.042;11.192;2023-04-24T13:51:43;0.73;;;0.47;;
36827;SDS011;22766;48.042;11.192;2023-04-24T13:54:10;0.85;;;0.60;;
36827;SDS011;22766;48.042;11.192;2023-04-24T13:56:37;0.90;;;0.60;;
36827;SDS011;22766;48.042;11.192;2023-04-24T13:59:03;0.73;;;0.45;;
36827;SDS011;22766;48.042;11.192;2023-04-24T14:01:30;1.30;;;0.57;;
36827;SDS011;22766;48.042;11.192;2023-04-24T14:03:57;0.38;;;0.30;;
36827;SDS011;22766;48.042;11.192;2023-04-24T14:06:24;0.70;;;0.35;;
36827;SDS011;22766;48.042;11.192;2023-04-24T14:08:51;5.82;;;0.60;;
36827;SDS011;22766;48.042;11.192;2023-04-24T14:11:18;0.50;;;0.32;;
36827;SDS011;22766;48.042;11.192;2023-04-24T14:13:45;0.70;;;0.40;;
36827;SDS011;22766;48.042;11.192;2023-04-24T14:16:12;2.97;;;0.50;;
36827;SDS011;22766;48.042;11.192;2023-04-24T14:18:39;0.45;;;0.30;;
36827;SDS011;22766;48.042;11.192;2023-04-24T14:21:06;1.23;;;0.55;;
36827;SDS011;22766;48.042;11.192;2023-04-24T14:23:33;0.60;;;0.35;;
36827;SDS011;22766;48.042;11.192;2023-04-24T14:25:59;0.68;;;0.38;;
36827;SDS011;22766;48.042;11.192;2023-04-24T14:28:26;1.95;;;0.75;;
36827;SDS011;22766;48.042;11.192;2023-04-24T14:30:53;0.75;;;0.40;;
36827;SDS011;22766;48.042;11.192;2023-04-24T14:33:20;0.57;;;0.40;;
36827;SDS011;22766;48.042;11.192;2023-04-24T14:35:46;1.10;;;0.57;;
36827;SDS011;22766;48.042;11.192;2023-04-24T14:38:14;0.50;;;0.35;;
36827;SDS011;22766;48.042;11.192;2023-04-24T14:40:41;1.73;;;0.60;;
36827;SDS011;22766;48.042;11.192;2023-04-24T14:43:11;1.10;;;0.52;;
36827;SDS011;22766;48.042;11.192;2023-04-24T14:45:38;0.75;;;0.40;;
36827;SDS011;22766;48.042;11.192;2023-04-24T14:48:06;0.40;;;0.40;;
36827;SDS011;22766;48.042;11.192;2023-04-24T14:50:34;2.83;;;0.63;;
36827;SDS011;22766;48.042;11.192;2023-04-24T14:53:01;1.85;;;0.40;;
36827;SDS011;22766;48.042;11.192;2023-04-24T14:55:28;0.80;;;0.50;;
36827;SDS011;22766;48.042;11.192;2023-04-24T14:57:55;0.35;;;0.32;;
36827;SDS011;22766;48.042;11.192;2023-04-24T15:00:22;3.35;;;0.50;;
36827;SDS011;22766;48.042;11.192;2023-04-24T15:02:51;0.88;;;0.40;;
36827;SDS011;22766;48.042;11.192;2023-04-24T15:05:19;0.57;;;0.47;;
36827;SDS011;22766;48.042;11.192;2023-04-24T15:07:46;1.58;;;0.40;;